createdAt,value
2022-09-05T00:02:25.754Z,1.20
2022-09-05T00:05:05.380Z,1.17
2022-09-05T00:07:58.242Z,1.20
2022-09-05T00:10:37.471Z,1.20
2022-09-05T00:13:23.488Z,1.13
2022-09-05T00:16:07.834Z,1.10
2022-09-05T00:19:46.543Z,1.10
2022-09-05T00:24:25.768Z,1.50
2022-09-05T00:25:21.207Z,1.20
2022-09-05T00:27:58.720Z,1.10
2022-09-05T00:31:07.224Z,1.13
2022-09-05T00:33:35.681Z,1.13
2022-09-05T00:36:17.944Z,1.10
2022-09-05T00:38:59.569Z,1.30
2022-09-05T00:41:28.942Z,1.10
2022-09-05T00:44:02.614Z,1.13
2022-09-05T00:46:36.743Z,1.27
2022-09-05T00:49:16.920Z,1.10
2022-09-05T00:51:54.688Z,1.17
2022-09-05T00:54:41.992Z,1.10
2022-09-05T00:57:30.650Z,1.20
2022-09-05T01:00:16.382Z,1.13
2022-09-05T01:03:22.110Z,1.73
2022-09-05T01:06:03.232Z,1.40
2022-09-05T01:09:08.449Z,1.20
2022-09-05T01:11:48.567Z,1.30
2022-09-05T01:14:37.863Z,1.13
2022-09-05T01:17:19.205Z,1.33
2022-09-05T01:20:19.073Z,1.30
2022-09-05T01:23:08.811Z,1.47
2022-09-05T01:26:00.232Z,1.10
2022-09-05T01:29:17.314Z,1.30
2022-09-05T01:31:37.549Z,1.20
2022-09-05T01:34:14.075Z,1.20
2022-09-05T01:36:58.687Z,1.10
2022-09-05T01:40:14.272Z,1.40
2022-09-05T01:42:37.044Z,1.10
2022-09-05T01:45:11.348Z,1.20
2022-09-05T01:47:50.853Z,1.23
2022-09-05T01:50:41.747Z,1.10
2022-09-05T01:53:29.177Z,1.30
2022-09-05T01:56:26.098Z,1.30
2022-09-05T01:59:05.877Z,1.17
2022-09-05T02:01:50.516Z,1.40
2022-09-05T02:04:41.309Z,1.37
2022-09-05T02:07:31.030Z,1.30
2022-09-05T02:10:30.875Z,1.20
2022-09-05T02:13:12.529Z,1.20
2022-09-05T02:15:59.290Z,1.30
2022-09-05T02:18:48.033Z,1.27
2022-09-05T02:21:24.652Z,1.40
2022-09-05T02:24:03.876Z,1.40
2022-09-05T02:26:37.914Z,1.37
2022-09-05T02:29:28.573Z,1.37
2022-09-05T02:32:03.618Z,1.30
2022-09-05T02:34:41.869Z,1.20
2022-09-05T02:37:15.996Z,1.40
2022-09-05T02:45:06.238Z,1.20
2022-09-05T02:45:11.426Z,1.57
2022-09-05T02:46:00.062Z,1.50
2022-09-05T02:48:39.192Z,1.50
2022-09-05T02:57:23.172Z,1.60
2022-09-05T02:57:34.041Z,1.67
2022-09-05T02:57:39.230Z,1.70
2022-09-05T03:00:10.381Z,1.53
2022-09-05T03:03:07.769Z,1.60
2022-09-05T03:05:42.108Z,1.70
2022-09-05T03:08:23.755Z,1.57
2022-09-05T03:11:46.203Z,1.30
2022-09-05T03:14:48.003Z,1.33
2022-09-05T03:17:55.225Z,1.60
2022-09-05T03:21:13.271Z,1.50
2022-09-05T03:24:18.644Z,1.50
2022-09-05T03:27:07.771Z,1.70
2022-09-05T03:30:02.501Z,1.67
2022-09-05T03:32:57.473Z,1.60
2022-09-05T03:35:55.635Z,1.50
2022-09-05T03:39:23.010Z,1.50
2022-09-05T03:42:17.424Z,1.67
2022-09-05T03:45:31.241Z,1.63
2022-09-05T03:48:30.142Z,1.90
2022-09-05T03:57:06.537Z,1.63
2022-09-05T03:57:16.116Z,1.50
2022-09-05T03:57:57.361Z,1.33
2022-09-05T04:01:10.753Z,1.67
2022-09-05T04:08:16.193Z,1.80
2022-09-05T04:08:23.890Z,1.57
2022-09-05T04:09:53.240Z,1.90
2022-09-05T04:12:26.539Z,1.60
2022-09-05T04:14:58.426Z,1.80
2022-09-05T04:17:35.456Z,1.70
2022-09-05T04:20:11.698Z,2.00
2022-09-05T04:23:05.311Z,1.70
2022-09-05T04:26:01.416Z,1.43
2022-09-05T04:28:56.736Z,1.80
2022-09-05T04:31:35.509Z,1.70
2022-09-05T04:34:17.156Z,1.40
2022-09-05T04:36:46.939Z,1.80
2022-09-05T04:39:28.884Z,1.70
2022-09-05T04:42:07.101Z,1.80
2022-09-05T04:44:41.789Z,1.50
2022-09-05T04:47:15.647Z,1.70
2022-09-05T04:49:50.448Z,1.73
2022-09-05T04:52:50.105Z,1.73
2022-09-05T04:55:21.803Z,2.00
2022-09-05T04:57:56.199Z,1.60
2022-09-05T05:06:05.846Z,1.70
2022-09-05T05:06:13.727Z,2.00
2022-09-05T05:06:42.243Z,1.80
2022-09-05T05:09:21.755Z,1.63
2022-09-05T05:15:17.203Z,1.60
2022-09-05T05:18:12.505Z,1.63
2022-09-05T05:18:14.075Z,1.60
2022-09-05T05:20:44.049Z,1.80
2022-09-05T05:23:18.008Z,1.90
2022-09-05T05:25:50.635Z,1.70
2022-09-05T05:31:13.825Z,1.87
2022-09-05T05:33:45.508Z,1.90
2022-09-05T05:36:22.495Z,1.90
2022-09-05T05:38:57.066Z,1.90
2022-09-05T05:41:29.234Z,1.70
2022-09-05T05:43:57.716Z,1.93
2022-09-05T05:46:32.417Z,1.90
2022-09-05T05:49:23.500Z,1.53
2022-09-05T05:52:06.310Z,1.90
2022-09-05T05:54:39.813Z,1.80
2022-09-05T05:57:58.170Z,1.77
2022-09-05T06:00:43.501Z,1.73
2022-09-05T06:03:46.406Z,2.00
2022-09-05T06:06:42.808Z,1.50
2022-09-05T06:14:49.205Z,1.50
2022-09-05T06:14:57.253Z,1.50
2022-09-05T06:16:41.332Z,1.70
2022-09-05T06:20:37.156Z,1.57
2022-09-05T06:23:32.220Z,1.50
2022-09-05T06:26:40.985Z,1.90
2022-09-05T06:29:16.724Z,1.50
2022-09-05T06:32:01.517Z,1.90
2022-09-05T06:34:59.891Z,1.60
2022-09-05T06:37:37.275Z,1.73
2022-09-05T06:40:17.085Z,1.67
2022-09-05T06:43:05.373Z,1.37
2022-09-05T06:45:58.492Z,1.57
2022-09-05T06:48:44.479Z,1.43
2022-09-05T06:51:46.382Z,1.50
2022-09-05T06:54:38.396Z,1.10
2022-09-05T06:57:46.524Z,1.40
2022-09-05T07:00:22.576Z,1.10
2022-09-05T07:03:15.601Z,1.00
2022-09-05T07:05:55.707Z,1.00
2022-09-05T07:08:35.808Z,1.03
2022-09-05T07:11:15.882Z,1.00
2022-09-05T07:13:56.540Z,1.07
2022-09-05T07:16:39.048Z,1.10
2022-09-05T07:19:27.473Z,0.83
2022-09-05T07:22:48.525Z,0.90
2022-09-05T07:25:22.527Z,1.10
2022-09-05T07:28:28.440Z,1.30
2022-09-05T07:30:50.838Z,1.00
2022-09-05T07:33:22.034Z,1.20
2022-09-05T07:35:51.957Z,1.00
2022-09-05T07:38:26.484Z,0.90
2022-09-05T07:41:22.112Z,0.80
2022-09-05T07:43:55.592Z,0.90
2022-09-05T07:46:26.676Z,0.90
2022-09-05T07:48:59.565Z,0.90
2022-09-05T07:55:26.189Z,0.90
2022-09-05T07:56:52.923Z,0.83
2022-09-05T07:57:30.075Z,1.00
2022-09-05T08:00:06.172Z,0.93
2022-09-05T08:02:46.997Z,0.80
2022-09-05T08:05:34.666Z,0.87
2022-09-05T08:08:08.952Z,0.80
2022-09-05T08:11:22.038Z,0.80
2022-09-05T08:13:51.581Z,0.87
2022-09-05T08:16:23.662Z,0.77
2022-09-05T08:18:57.316Z,0.80
2022-09-05T08:21:31.514Z,1.00
2022-09-05T08:24:13.729Z,0.80
2022-09-05T08:26:47.293Z,0.70
2022-09-05T08:29:28.310Z,0.80
2022-09-05T08:32:03.881Z,1.20
2022-09-05T08:34:44.195Z,0.70
2022-09-05T08:37:17.846Z,0.80
2022-09-05T08:39:59.079Z,0.90
2022-09-05T08:44:54.487Z,0.80
2022-09-05T08:46:44.901Z,0.70
2022-09-05T08:48:58.213Z,0.70
2022-09-05T08:51:53.915Z,0.60
2022-09-05T08:54:30.186Z,0.70
2022-09-05T08:57:09.400Z,0.60
2022-09-05T09:00:18.527Z,0.63
2022-09-05T09:03:03.869Z,0.80
2022-09-05T09:06:13.947Z,0.70
2022-09-05T09:09:05.343Z,0.70
2022-09-05T09:11:38.486Z,0.67
2022-09-05T09:14:36.874Z,0.60
2022-09-05T09:17:28.462Z,0.70
2022-09-05T09:20:14.220Z,0.70
2022-09-05T09:22:51.755Z,0.60
2022-09-05T09:25:27.144Z,0.57
2022-09-05T09:28:48.344Z,0.70
2022-09-05T09:31:36.634Z,0.70
2022-09-05T09:34:56.190Z,0.70
2022-09-05T09:38:13.652Z,0.43
2022-09-05T09:41:20.787Z,0.70
2022-09-05T09:44:23.527Z,0.50
2022-09-05T09:46:53.980Z,0.60
2022-09-05T09:49:44.237Z,0.50
2022-09-05T09:52:54.065Z,0.50
2022-09-05T09:56:10.071Z,0.70
2022-09-05T09:59:07.468Z,0.50
2022-09-05T10:01:53.224Z,0.60
2022-09-05T10:10:38.648Z,0.50
2022-09-05T10:10:58.570Z,0.60
2022-09-05T10:11:49.977Z,0.50
2022-09-05T10:14:50.072Z,0.70
2022-09-05T10:17:50.846Z,0.80
2022-09-05T10:20:38.171Z,0.50
2022-09-05T10:23:53.484Z,0.50
2022-09-05T10:26:57.570Z,0.50
2022-09-05T10:29:43.818Z,0.70
2022-09-05T10:35:11.674Z,0.50
2022-09-05T10:35:22.561Z,0.57
2022-09-05T10:37:59.050Z,0.57
2022-09-05T10:40:30.680Z,0.57
2022-09-05T10:43:22.840Z,0.83
2022-09-05T10:46:02.909Z,0.43
2022-09-05T10:48:43.579Z,0.50
2022-09-05T10:51:27.787Z,0.40
2022-09-05T10:54:11.063Z,0.40
2022-09-05T10:56:44.568Z,1.20
2022-09-05T11:02:11.570Z,1.10
2022-09-05T11:02:33.508Z,0.60
2022-09-05T11:05:17.301Z,0.57
2022-09-05T11:07:58.953Z,0.60
2022-09-05T11:10:35.981Z,0.50
2022-09-05T11:13:20.417Z,0.40
2022-09-05T11:16:09.234Z,0.47
2022-09-05T11:19:04.741Z,0.40
2022-09-05T11:21:49.757Z,0.50
2022-09-05T11:24:31.371Z,0.67
2022-09-05T11:27:23.701Z,0.40
2022-09-05T11:29:57.230Z,0.50
2022-09-05T11:38:02.844Z,0.40
2022-09-05T11:39:51.199Z,0.40
2022-09-05T11:40:10.955Z,0.50
2022-09-05T11:42:39.959Z,0.40
2022-09-05T11:45:25.734Z,0.50
2022-09-05T11:48:20.252Z,0.60
2022-09-05T11:51:01.358Z,0.60
2022-09-05T11:53:59.678Z,0.60
2022-09-05T11:56:54.634Z,0.50
2022-09-05T12:00:31.707Z,0.45
2022-09-05T12:04:00.286Z,0.50
2022-09-05T12:06:57.325Z,0.70
2022-09-05T12:09:42.564Z,0.50
2022-09-05T12:12:39.293Z,0.57
2022-09-05T12:15:34.395Z,0.50
2022-09-05T12:18:19.585Z,0.60
2022-09-05T12:24:24.850Z,0.52
2022-09-05T12:27:42.120Z,0.52
2022-09-05T12:30:00.517Z,0.50
2022-09-05T12:33:28.359Z,0.60
2022-09-05T12:36:10.227Z,0.30
2022-09-05T12:40:56.154Z,0.50
2022-09-05T12:41:41.391Z,0.50
2022-09-05T12:41:42.814Z,0.50
2022-09-05T12:44:41.860Z,0.60
2022-09-05T12:47:18.792Z,0.40
2022-09-05T12:50:02.572Z,0.52
2022-09-05T12:52:42.691Z,0.40
2022-09-05T12:55:20.636Z,0.45
2022-09-05T13:02:56.475Z,0.50
2022-09-05T13:03:09.050Z,0.50
2022-09-05T13:03:53.345Z,0.45
2022-09-05T13:06:31.079Z,0.68
2022-09-05T13:09:04.964Z,0.70
2022-09-05T13:14:56.696Z,0.43
2022-09-05T13:15:07.961Z,0.52
2022-09-05T13:17:41.366Z,0.50
2022-09-05T13:20:20.014Z,0.50
2022-09-05T13:22:50.996Z,0.45
2022-09-05T13:25:27.249Z,0.60
2022-09-05T13:28:01.705Z,0.50
2022-09-05T13:34:32.405Z,0.50
2022-09-05T13:38:16.164Z,0.73
2022-09-05T13:38:17.981Z,0.40
2022-09-05T13:39:22.972Z,0.40
2022-09-05T13:41:59.523Z,0.50
2022-09-05T13:44:30.053Z,0.60
2022-09-05T13:47:29.248Z,0.50
2022-09-05T13:50:08.324Z,0.63
2022-09-05T13:52:41.667Z,0.50
2022-09-05T13:55:23.141Z,0.80
2022-09-05T13:57:55.961Z,0.57
2022-09-05T14:00:56.888Z,0.57
2022-09-05T14:04:01.260Z,0.53
2022-09-05T14:10:15.598Z,0.50
2022-09-05T14:12:49.173Z,0.50
2022-09-05T14:15:29.189Z,0.50
2022-09-05T14:18:21.307Z,0.60
2022-09-05T14:21:13.968Z,0.60
2022-09-05T14:23:53.743Z,0.60
2022-09-05T14:26:30.958Z,0.50
2022-09-05T14:29:06.249Z,0.57
2022-09-05T14:37:39.804Z,0.50
2022-09-05T14:37:52.816Z,0.40
2022-09-05T14:38:11.633Z,0.53
2022-09-05T14:41:33.574Z,0.50
2022-09-05T14:44:29.018Z,0.60
2022-09-05T14:47:37.511Z,0.50
2022-09-05T14:50:29.337Z,0.50
2022-09-05T14:56:31.994Z,0.70
2022-09-05T15:02:38.281Z,0.60
2022-09-05T15:02:48.794Z,0.57
2022-09-05T15:04:45.383Z,0.50
2022-09-05T15:07:21.514Z,0.50
2022-09-05T15:12:14.944Z,0.50
2022-09-05T15:13:00.589Z,0.60
2022-09-05T15:15:33.955Z,0.70
2022-09-05T15:18:05.141Z,0.50
2022-09-05T15:20:37.175Z,0.60
2022-09-05T15:23:11.098Z,0.60
2022-09-05T15:25:47.986Z,0.50
2022-09-05T15:28:21.751Z,0.60
2022-09-05T15:30:58.008Z,0.73
2022-09-05T15:33:29.020Z,0.60
2022-09-05T15:35:59.362Z,0.57
2022-09-05T15:38:31.305Z,0.60
2022-09-05T15:41:12.196Z,0.60
2022-09-05T15:43:52.719Z,0.80
2022-09-05T15:46:34.372Z,0.70
2022-09-05T15:49:06.579Z,0.57
2022-09-05T15:51:45.828Z,0.70
2022-09-05T15:54:33.848Z,0.57
2022-09-05T15:57:17.448Z,0.70
2022-09-05T15:59:52.924Z,0.50
2022-09-05T16:02:25.566Z,0.70
2022-09-05T16:10:29.306Z,0.63
2022-09-05T16:10:33.561Z,0.50
2022-09-05T16:11:06.970Z,1.00
2022-09-05T16:13:53.095Z,0.63
2022-09-05T16:22:09.684Z,0.70
2022-09-05T16:23:26.018Z,0.80
2022-09-05T16:23:27.784Z,0.70
2022-09-05T16:25:05.792Z,0.83
2022-09-05T16:27:52.810Z,0.70
2022-09-05T16:30:24.734Z,0.90
2022-09-05T16:32:59.702Z,0.70
2022-09-05T16:35:28.583Z,0.80
2022-09-05T16:38:04.628Z,0.70
2022-09-05T16:40:36.545Z,0.70
2022-09-05T16:43:09.835Z,0.63
2022-09-05T16:45:47.816Z,0.70
2022-09-05T16:48:40.352Z,0.60
2022-09-05T16:51:32.245Z,0.80
2022-09-05T16:54:10.972Z,1.30
2022-09-05T16:56:42.819Z,1.07
2022-09-05T16:59:15.429Z,0.80
2022-09-05T17:02:07.209Z,0.90
2022-09-05T17:05:04.501Z,1.10
2022-09-05T17:07:53.564Z,1.07
2022-09-05T17:10:25.681Z,1.03
2022-09-05T17:12:55.050Z,1.10
2022-09-05T17:15:27.651Z,1.37
2022-09-05T17:18:21.493Z,1.17
2022-09-05T17:20:55.462Z,1.10
2022-09-05T17:27:09.128Z,1.23
2022-09-05T17:29:35.089Z,1.10
2022-09-05T17:29:45.781Z,1.30
2022-09-05T17:32:05.890Z,1.30
2022-09-05T17:35:17.274Z,1.30
2022-09-05T17:38:13.543Z,1.53
2022-09-05T17:41:35.263Z,2.00
2022-09-05T17:44:10.483Z,2.00
2022-09-05T17:46:49.387Z,2.13
2022-09-05T17:49:42.901Z,4.03
2022-09-05T17:52:22.851Z,3.77
2022-09-05T17:54:55.305Z,3.40
2022-09-05T17:57:41.309Z,3.47
2022-09-05T18:00:48.658Z,3.13
2022-09-05T18:04:17.520Z,3.13
2022-09-05T18:07:00.029Z,2.70
2022-09-05T18:10:12.484Z,2.60
2022-09-05T18:13:12.957Z,2.67
2022-09-05T18:16:10.886Z,2.40
2022-09-05T18:19:28.810Z,3.40
2022-09-05T18:21:48.522Z,3.00
2022-09-05T18:24:33.306Z,3.77
2022-09-05T18:28:03.276Z,3.43
2022-09-05T18:30:06.638Z,3.97
2022-09-05T18:32:51.947Z,3.83
2022-09-05T18:35:37.903Z,4.30
2022-09-05T18:38:50.374Z,3.83
2022-09-05T18:41:21.723Z,3.80
2022-09-05T18:44:19.999Z,4.47
2022-09-05T18:46:52.995Z,4.00
2022-09-05T18:50:24.885Z,3.73
2022-09-05T18:52:23.904Z,4.03
2022-09-05T18:56:10.847Z,3.60
2022-09-05T18:57:58.004Z,3.73
2022-09-05T19:00:44.824Z,4.20
2022-09-05T19:03:18.697Z,3.87
2022-09-05T19:05:51.898Z,4.30
2022-09-05T19:08:28.896Z,4.40
2022-09-05T19:11:02.237Z,4.30
2022-09-05T19:14:12.707Z,4.57
2022-09-05T19:16:48.097Z,4.20
2022-09-05T19:19:24.588Z,4.33
2022-09-05T19:22:35.941Z,4.27
2022-09-05T19:24:46.959Z,4.10
2022-09-05T19:28:01.482Z,3.83
2022-09-05T19:36:47.059Z,3.43
2022-09-05T19:37:02.958Z,3.10
2022-09-05T19:37:12.858Z,2.90
2022-09-05T19:39:45.666Z,2.83
2022-09-05T19:47:33.995Z,2.60
2022-09-05T19:47:44.059Z,2.60
2022-09-05T19:47:55.814Z,2.20
2022-09-05T19:50:21.682Z,2.20
2022-09-05T19:52:53.393Z,2.40
2022-09-05T19:55:26.304Z,2.33
2022-09-05T19:58:15.015Z,2.43
2022-09-05T20:01:00.284Z,2.30
2022-09-05T20:03:38.661Z,2.13
2022-09-05T20:06:26.689Z,2.40
2022-09-05T20:09:10.778Z,2.40
2022-09-05T20:11:46.443Z,2.20
2022-09-05T20:14:26.928Z,1.80
2022-09-05T20:16:57.636Z,2.30
2022-09-05T20:19:32.037Z,2.20
2022-09-05T20:22:45.842Z,2.30
2022-09-05T20:24:55.859Z,2.10
2022-09-05T20:27:28.329Z,2.13
2022-09-05T20:30:00.264Z,2.60
2022-09-05T20:32:39.632Z,2.23
2022-09-05T20:43:09.617Z,2.50
2022-09-05T20:43:17.606Z,2.63
2022-09-05T20:43:29.617Z,2.30
2022-09-05T20:44:01.591Z,2.23
2022-09-05T20:47:43.592Z,2.40
2022-09-05T20:52:59.871Z,2.60
2022-09-05T20:54:22.169Z,2.17
2022-09-05T20:55:39.039Z,2.20
2022-09-05T20:58:10.934Z,2.60
2022-09-05T21:01:17.440Z,2.60
2022-09-05T21:03:40.773Z,2.50
2022-09-05T21:06:23.704Z,2.53
2022-09-05T21:08:54.815Z,2.90
2022-09-05T21:11:35.588Z,2.27
2022-09-05T21:14:05.871Z,2.63
2022-09-05T21:16:36.692Z,2.60
2022-09-05T21:19:05.215Z,2.17
2022-09-05T21:21:35.586Z,2.67
2022-09-05T21:24:16.701Z,2.43
2022-09-05T21:26:49.648Z,2.60
2022-09-05T21:29:32.843Z,2.70
2022-09-05T21:32:09.031Z,2.40
2022-09-05T21:34:45.415Z,2.40
2022-09-05T21:37:15.254Z,2.60
2022-09-05T21:39:58.760Z,2.77
2022-09-05T21:45:18.109Z,2.53
2022-09-05T21:47:40.764Z,2.57
2022-09-05T21:48:10.540Z,2.60
2022-09-05T21:50:42.469Z,2.70
2022-09-05T21:59:13.295Z,2.67
2022-09-05T21:59:16.565Z,2.53
2022-09-05T21:59:20.936Z,2.50
2022-09-05T22:01:52.320Z,2.60
2022-09-05T22:04:22.473Z,2.87
2022-09-05T22:06:53.229Z,2.80
2022-09-05T22:09:22.950Z,2.50
2022-09-05T22:11:51.456Z,2.90
2022-09-05T22:14:23.177Z,2.83
2022-09-05T22:16:54.178Z,2.80
2022-09-05T22:19:37.200Z,2.50
2022-09-05T22:22:16.398Z,2.57
2022-09-05T22:24:51.630Z,2.63
2022-09-05T22:27:22.658Z,2.60
2022-09-05T22:29:52.895Z,2.23
2022-09-05T22:32:31.013Z,2.60
2022-09-05T22:35:15.725Z,2.63
2022-09-05T22:38:01.785Z,2.73
2022-09-05T22:40:31.566Z,2.90
2022-09-05T22:43:01.291Z,2.60
2022-09-05T22:45:32.756Z,3.00
2022-09-05T22:48:10.621Z,2.97
2022-09-05T22:50:39.984Z,2.77
2022-09-05T22:53:09.867Z,2.87
2022-09-05T22:55:39.694Z,2.90
2022-09-05T22:58:10.007Z,3.27
2022-09-05T23:00:39.796Z,3.30
2022-09-05T23:03:09.066Z,3.70
2022-09-05T23:05:37.401Z,3.33
2022-09-05T23:08:06.882Z,4.00
2022-09-05T23:10:36.238Z,3.53
2022-09-05T23:13:06.133Z,3.80
2022-09-05T23:15:34.865Z,3.60
2022-09-05T23:18:05.859Z,4.17
2022-09-05T23:20:35.056Z,4.50
2022-09-05T23:23:05.505Z,3.80
2022-09-05T23:25:33.906Z,4.90
2022-09-05T23:28:06.209Z,4.40
2022-09-05T23:30:34.570Z,4.30
2022-09-05T23:33:06.166Z,4.87
2022-09-05T23:35:34.805Z,4.90
2022-09-05T23:38:03.320Z,4.97
2022-09-05T23:40:31.588Z,5.30
2022-09-05T23:43:01.238Z,5.40
2022-09-05T23:45:30.186Z,5.10
2022-09-05T23:47:59.603Z,5.57
2022-09-05T23:50:29.596Z,5.30
2022-09-05T23:52:57.940Z,5.63
2022-09-05T23:55:27.188Z,5.87
2022-09-05T23:57:58.336Z,6.10
